Winter Springs, Florida
Current Conditions -  °F | °C
As of 9:53 AM on Saturday 25 Oct 2014 (Local Time) from KSFB Reporting Station
Clear Clear  
Wind Chill: 69°   Ceiling: Unl
Heat Index: 69°   Visibility: 10mi
Dew Point: 53°   Wind: 12mph
Humidity: 57%   Direction: 350°N
Pressure: 30"   Gusts: NA
Location:  28.7°N, 81.26°W
Report Text: KSFB 251353Z 35010KT 10SM CLR 21/12 A3000 RMK AO2 SLP158 T02060117
Loading
Personal Weather Stations






























Interactive Weather Map
Tropical Storm Tracking
New forecast layout! Learn more

10-Day Weather Forecast

Advertisements
Track Severe Weather on mobile